sensor_id;sensor_type;location;lat;lon;timestamp;pressure;altitude;pressure_sealevel;temperature;humidity
69848;BME280;57143;55.940;37.496;2024-03-17T00:02:10;99614.78;;;1.62;100.00
69848;BME280;57143;55.940;37.496;2024-03-17T00:04:36;99623.97;;;1.67;100.00
69848;BME280;57143;55.940;37.496;2024-03-17T00:07:04;99631.47;;;1.64;100.00
69848;BME280;57143;55.940;37.496;2024-03-17T00:09:30;99625.91;;;1.57;100.00
69848;BME280;57143;55.940;37.496;2024-03-17T00:11:57;99639.28;;;1.57;100.00
69848;BME280;57143;55.940;37.496;2024-03-17T00:14:25;99639.16;;;1.59;100.00
69848;BME280;57143;55.940;37.496;2024-03-17T00:16:52;99635.63;;;1.58;100.00
69848;BME280;57143;55.940;37.496;2024-03-17T00:19:20;99638.75;;;1.54;100.00
69848;BME280;57143;55.940;37.496;2024-03-17T00:21:48;99644.94;;;1.54;100.00
69848;BME280;57143;55.940;37.496;2024-03-17T00:24:16;99633.56;;;1.44;100.00
69848;BME280;57143;55.940;37.496;2024-03-17T00:26:43;99652.94;;;1.46;100.00
69848;BME280;57143;55.940;37.496;2024-03-17T00:29:10;99654.78;;;1.46;100.00
69848;BME280;57143;55.940;37.496;2024-03-17T00:31:38;99649.56;;;1.36;100.00
69848;BME280;57143;55.940;37.496;2024-03-17T00:34:04;99656.06;;;1.42;100.00
69848;BME280;57143;55.940;37.496;2024-03-17T00:36:33;99639.53;;;1.30;100.00
69848;BME280;57143;55.940;37.496;2024-03-17T00:38:59;99661.75;;;1.39;100.00
69848;BME280;57143;55.940;37.496;2024-03-17T00:41:27;99661.91;;;1.37;100.00
69848;BME280;57143;55.940;37.496;2024-03-17T00:43:53;99661.06;;;1.37;100.00
69848;BME280;57143;55.940;37.496;2024-03-17T00:46:21;99663.22;;;1.33;100.00
69848;BME280;57143;55.940;37.496;2024-03-17T00:48:48;99655.00;;;1.18;100.00
69848;BME280;57143;55.940;37.496;2024-03-17T00:51:16;99668.88;;;1.30;100.00
69848;BME280;57143;55.940;37.496;2024-03-17T00:53:44;99666.22;;;1.30;100.00
69848;BME280;57143;55.940;37.496;2024-03-17T00:56:11;99665.69;;;1.27;100.00
69848;BME280;57143;55.940;37.496;2024-03-17T00:58:37;99674.03;;;1.24;100.00
69848;BME280;57143;55.940;37.496;2024-03-17T01:01:05;99672.50;;;1.21;100.00
69848;BME280;57143;55.940;37.496;2024-03-17T01:03:31;99673.19;;;1.23;100.00
69848;BME280;57143;55.940;37.496;2024-03-17T01:05:58;99671.97;;;1.17;100.00
69848;BME280;57143;55.940;37.496;2024-03-17T01:08:25;99672.81;;;1.18;100.00
69848;BME280;57143;55.940;37.496;2024-03-17T01:10:53;99664.28;;;1.14;100.00
69848;BME280;57143;55.940;37.496;2024-03-17T01:13:19;99664.78;;;1.10;100.00
69848;BME280;57143;55.940;37.496;2024-03-17T01:15:51;99671.09;;;1.09;100.00
69848;BME280;57143;55.940;37.496;2024-03-17T01:18:18;99672.78;;;1.10;100.00
69848;BME280;57143;55.940;37.496;2024-03-17T01:20:45;99665.41;;;1.04;100.00
69848;BME280;57143;55.940;37.496;2024-03-17T01:23:12;99665.56;;;1.02;100.00
69848;BME280;57143;55.940;37.496;2024-03-17T01:25:40;99670.75;;;1.04;100.00
69848;BME280;57143;55.940;37.496;2024-03-17T01:28:09;99668.56;;;0.99;100.00
69848;BME280;57143;55.940;37.496;2024-03-17T01:30:35;99666.34;;;0.95;100.00
69848;BME280;57143;55.940;37.496;2024-03-17T01:33:05;99673.03;;;0.99;100.00
69848;BME280;57143;55.940;37.496;2024-03-17T01:35:31;99667.88;;;0.97;100.00
69848;BME280;57143;55.940;37.496;2024-03-17T01:37:59;99667.88;;;0.97;100.00
69848;BME280;57143;55.940;37.496;2024-03-17T01:40:25;99657.84;;;0.91;100.00
69848;BME280;57143;55.940;37.496;2024-03-17T01:42:53;99671.53;;;0.96;100.00
69848;BME280;57143;55.940;37.496;2024-03-17T01:45:26;99666.34;;;0.95;100.00
69848;BME280;57143;55.940;37.496;2024-03-17T01:47:53;99667.34;;;0.94;100.00
69848;BME280;57143;55.940;37.496;2024-03-17T01:50:24;99668.34;;;0.93;100.00
69848;BME280;57143;55.940;37.496;2024-03-17T01:52:53;99665.69;;;0.93;100.00
69848;BME280;57143;55.940;37.496;2024-03-17T01:55:20;99670.50;;;0.89;100.00
69848;BME280;57143;55.940;37.496;2024-03-17T01:57:48;99660.66;;;0.90;100.00
69848;BME280;57143;55.940;37.496;2024-03-17T02:00:16;99664.63;;;0.86;100.00
69848;BME280;57143;55.940;37.496;2024-03-17T02:02:44;99662.66;;;0.88;100.00
69848;BME280;57143;55.940;37.496;2024-03-17T02:05:11;99668.28;;;0.85;100.00
69848;BME280;57143;55.940;37.496;2024-03-17T02:07:37;99653.91;;;0.78;100.00
69848;BME280;57143;55.940;37.496;2024-03-17T02:10:07;99650.56;;;0.76;100.00
69848;BME280;57143;55.940;37.496;2024-03-17T02:12:36;99651.91;;;0.80;100.00
69848;BME280;57143;55.940;37.496;2024-03-17T02:15:05;99651.09;;;0.79;100.00
69848;BME280;57143;55.940;37.496;2024-03-17T02:17:32;99654.91;;;0.77;100.00
69848;BME280;57143;55.940;37.496;2024-03-17T02:20:03;99625.28;;;0.62;100.00
69848;BME280;57143;55.940;37.496;2024-03-17T02:22:35;99638.53;;;0.72;100.00
69848;BME280;57143;55.940;37.496;2024-03-17T02:25:03;99645.53;;;0.73;100.00
69848;BME280;57143;55.940;37.496;2024-03-17T02:27:30;99630.84;;;0.69;100.00
69848;BME280;57143;55.940;37.496;2024-03-17T02:29:58;99624.16;;;0.65;100.00
69848;BME280;57143;55.940;37.496;2024-03-17T02:32:24;99631.47;;;0.63;100.00
69848;BME280;57143;55.940;37.496;2024-03-17T02:34:53;99624.66;;;0.68;100.00
69848;BME280;57143;55.940;37.496;2024-03-17T02:37:20;99632.69;;;0.68;100.00
69848;BME280;57143;55.940;37.496;2024-03-17T02:39:49;99626.81;;;0.65;100.00
69848;BME280;57143;55.940;37.496;2024-03-17T02:42:15;99609.94;;;0.56;100.00
69848;BME280;57143;55.940;37.496;2024-03-17T02:44:42;99629.66;;;0.63;100.00
69848;BME280;57143;55.940;37.496;2024-03-17T02:47:10;99624.47;;;0.62;100.00
69848;BME280;57143;55.940;37.496;2024-03-17T02:49:40;99613.28;;;0.58;100.00
69848;BME280;57143;55.940;37.496;2024-03-17T02:52:10;99609.44;;;0.61;100.00
69848;BME280;57143;55.940;37.496;2024-03-17T02:54:38;99573.84;;;0.44;100.00
69848;BME280;57143;55.940;37.496;2024-03-17T02:57:07;99604.97;;;0.61;100.00
69848;BME280;57143;55.940;37.496;2024-03-17T02:59:34;99603.44;;;0.59;100.00
69848;BME280;57143;55.940;37.496;2024-03-17T03:02:02;99597.44;;;0.57;100.00
69848;BME280;57143;55.940;37.496;2024-03-17T03:04:30;99569.81;;;0.40;100.00
69848;BME280;57143;55.940;37.496;2024-03-17T03:06:57;99592.41;;;0.54;100.00
69848;BME280;57143;55.940;37.496;2024-03-17T03:09:25;99592.41;;;0.54;100.00
69848;BME280;57143;55.940;37.496;2024-03-17T03:11:57;99599.09;;;0.58;100.00
69848;BME280;57143;55.940;37.496;2024-03-17T03:14:26;99578.78;;;0.57;100.00
69848;BME280;57143;55.940;37.496;2024-03-17T03:16:54;99578.09;;;0.55;100.00
69848;BME280;57143;55.940;37.496;2024-03-17T03:19:21;99586.09;;;0.55;100.00
69848;BME280;57143;55.940;37.496;2024-03-17T03:21:48;99577.09;;;0.56;100.00
69848;BME280;57143;55.940;37.496;2024-03-17T03:24:16;99570.09;;;0.55;100.00
69848;BME280;57143;55.940;37.496;2024-03-17T03:26:43;99561.25;;;0.54;100.00
69848;BME280;57143;55.940;37.496;2024-03-17T03:29:11;99564.06;;;0.53;100.00
69848;BME280;57143;55.940;37.496;2024-03-17T03:31:41;99567.88;;;0.50;100.00
69848;BME280;57143;55.940;37.496;2024-03-17T03:34:09;99569.22;;;0.46;100.00
69848;BME280;57143;55.940;37.496;2024-03-17T03:36:38;99568.88;;;0.49;100.00
69848;BME280;57143;55.940;37.496;2024-03-17T03:39:07;99552.38;;;0.46;100.00
69848;BME280;57143;55.940;37.496;2024-03-17T03:41:37;99556.69;;;0.47;100.00
69848;BME280;57143;55.940;37.496;2024-03-17T03:44:05;99561.25;;;0.54;100.00
69848;BME280;57143;55.940;37.496;2024-03-17T03:46:32;99561.25;;;0.54;100.00
69848;BME280;57143;55.940;37.496;2024-03-17T03:49:01;99556.75;;;0.55;100.00
69848;BME280;57143;55.940;37.496;2024-03-17T03:51:29;99559.59;;;0.53;100.00
69848;BME280;57143;55.940;37.496;2024-03-17T03:53:57;99554.28;;;0.61;100.00
69848;BME280;57143;55.940;37.496;2024-03-17T03:56:24;99535.44;;;0.55;100.00
69848;BME280;57143;55.940;37.496;2024-03-17T03:58:51;99546.31;;;0.69;100.00
69848;BME280;57143;55.940;37.496;2024-03-17T04:01:19;99543.88;;;0.76;100.00
69848;BME280;57143;55.940;37.496;2024-03-17T04:03:48;99545.03;;;0.73;100.00
69848;BME280;57143;55.940;37.496;2024-03-17T04:06:17;99547.06;;;0.79;100.00
69848;BME280;57143;55.940;37.496;2024-03-17T04:08:44;99545.94;;;0.90;100.00
69848;BME280;57143;55.940;37.496;2024-03-17T04:11:12;99548.84;;;1.04;100.00
69848;BME280;57143;55.940;37.496;2024-03-17T04:13:39;99549.53;;;1.14;100.00
69848;BME280;57143;55.940;37.496;2024-03-17T04:16:07;99553.41;;;1.28;100.00
69848;BME280;57143;55.940;37.496;2024-03-17T04:18:36;99545.44;;;1.36;100.00
69848;BME280;57143;55.940;37.496;2024-03-17T04:21:05;99557.34;;;1.58;100.00
69848;BME280;57143;55.940;37.496;2024-03-17T04:23:35;99557.53;;;1.72;100.00
69848;BME280;57143;55.940;37.496;2024-03-17T04:26:04;99569.06;;;1.97;100.00
69848;BME280;57143;55.940;37.496;2024-03-17T04:28:33;99557.88;;;2.09;100.00
69848;BME280;57143;55.940;37.496;2024-03-17T04:31:05;99574.72;;;2.42;100.00
69848;BME280;57143;55.940;37.496;2024-03-17T04:33:33;99554.97;;;2.67;100.00
69848;BME280;57143;55.940;37.496;2024-03-17T04:36:01;99560.63;;;2.80;100.00
69848;BME280;57143;55.940;37.496;2024-03-17T04:38:29;99545.19;;;2.98;100.00
69848;BME280;57143;55.940;37.496;2024-03-17T04:40:58;99543.25;;;3.45;100.00
69848;BME280;57143;55.940;37.496;2024-03-17T04:43:35;99520.03;;;3.69;100.00
69848;BME280;57143;55.940;37.496;2024-03-17T04:46:06;99474.16;;;3.86;100.00
69848;BME280;57143;55.940;37.496;2024-03-17T04:48:37;99458.84;;;4.09;100.00
69848;BME280;57143;55.940;37.496;2024-03-17T04:51:05;99427.91;;;4.36;100.00
69848;BME280;57143;55.940;37.496;2024-03-17T04:53:32;99367.19;;;4.49;100.00
69848;BME280;57143;55.940;37.496;2024-03-17T04:56:02;99335.34;;;4.97;100.00
69848;BME280;57143;55.940;37.496;2024-03-17T04:58:31;99276.53;;;5.02;100.00
69848;BME280;57143;55.940;37.496;2024-03-17T05:01:04;99216.13;;;5.19;100.00
69848;BME280;57143;55.940;37.496;2024-03-17T05:03:32;99195.16;;;5.35;100.00
69848;BME280;57143;55.940;37.496;2024-03-17T05:06:01;99166.34;;;5.50;100.00
69848;BME280;57143;55.940;37.496;2024-03-17T05:08:29;99136.75;;;5.84;100.00
69848;BME280;57143;55.940;37.496;2024-03-17T05:10:57;99119.81;;;5.97;100.00
69848;BME280;57143;55.940;37.496;2024-03-17T05:13:27;99093.53;;;5.93;100.00
69848;BME280;57143;55.940;37.496;2024-03-17T05:15:54;99097.13;;;6.26;100.00
69848;BME280;57143;55.940;37.496;2024-03-17T05:18:22;99087.16;;;6.20;100.00
69848;BME280;57143;55.940;37.496;2024-03-17T05:20:58;99080.34;;;6.24;100.00
69848;BME280;57143;55.940;37.496;2024-03-17T05:23:27;99087.00;;;6.54;100.00
69848;BME280;57143;55.940;37.496;2024-03-17T05:25:55;99079.56;;;6.62;100.00
69848;BME280;57143;55.940;37.496;2024-03-17T05:28:23;99057.59;;;6.72;100.00
69848;BME280;57143;55.940;37.496;2024-03-17T05:30:52;99089.47;;;6.75;100.00
69848;BME280;57143;55.940;37.496;2024-03-17T05:33:21;99088.22;;;6.90;100.00
69848;BME280;57143;55.940;37.496;2024-03-17T05:35:49;99096.94;;;6.86;100.00
69848;BME280;57143;55.940;37.496;2024-03-17T05:38:19;99086.19;;;6.79;100.00
69848;BME280;57143;55.940;37.496;2024-03-17T05:40:56;99103.72;;;7.15;100.00
69848;BME280;57143;55.940;37.496;2024-03-17T05:43:26;99082.38;;;7.13;100.00
69848;BME280;57143;55.940;37.496;2024-03-17T05:45:57;99132.09;;;7.43;100.00
69848;BME280;57143;55.940;37.496;2024-03-17T05:48:25;99138.06;;;7.58;100.00
69848;BME280;57143;55.940;37.496;2024-03-17T05:50:52;99137.25;;;7.51;100.00
69848;BME280;57143;55.940;37.496;2024-03-17T05:53:21;99139.16;;;7.38;100.00
69848;BME280;57143;55.940;37.496;2024-03-17T05:55:50;99143.44;;;7.58;100.00
69848;BME280;57143;55.940;37.496;2024-03-17T05:58:17;99101.13;;;7.59;100.00
69848;BME280;57143;55.940;37.496;2024-03-17T06:00:46;99122.09;;;7.57;100.00
69848;BME280;57143;55.940;37.496;2024-03-17T06:03:15;99139.28;;;7.69;100.00
69848;BME280;57143;55.940;37.496;2024-03-17T06:05:45;99156.38;;;7.94;100.00
69848;BME280;57143;55.940;37.496;2024-03-17T06:08:13;99173.50;;;8.26;100.00
69848;BME280;57143;55.940;37.496;2024-03-17T06:10:43;99179.53;;;8.14;100.00
69848;BME280;57143;55.940;37.496;2024-03-17T06:13:12;99177.06;;;8.26;100.00
69848;BME280;57143;55.940;37.496;2024-03-17T06:15:41;99185.56;;;8.16;100.00
69848;BME280;57143;55.940;37.496;2024-03-17T06:18:11;99189.66;;;8.39;100.00
69848;BME280;57143;55.940;37.496;2024-03-17T06:20:42;99190.78;;;8.25;100.00
69848;BME280;57143;55.940;37.496;2024-03-17T06:23:10;99190.03;;;8.42;100.00
69848;BME280;57143;55.940;37.496;2024-03-17T06:25:39;99181.13;;;8.42;100.00
69848;BME280;57143;55.940;37.496;2024-03-17T06:28:07;99197.28;;;8.48;100.00
69848;BME280;57143;55.940;37.496;2024-03-17T06:30:36;99183.94;;;8.53;100.00
69848;BME280;57143;55.940;37.496;2024-03-17T06:33:04;99201.81;;;8.54;100.00
69848;BME280;57143;55.940;37.496;2024-03-17T06:35:32;99206.66;;;8.77;100.00
69848;BME280;57143;55.940;37.496;2024-03-17T06:38:01;99182.22;;;8.28;100.00
69848;BME280;57143;55.940;37.496;2024-03-17T06:40:28;99147.16;;;8.14;100.00
69848;BME280;57143;55.940;37.496;2024-03-17T06:42:56;99111.56;;;7.49;100.00
69848;BME280;57143;55.940;37.496;2024-03-17T06:45:24;99094.16;;;7.38;100.00
69848;BME280;57143;55.940;37.496;2024-03-17T06:47:51;99093.16;;;7.26;100.00
69848;BME280;57143;55.940;37.496;2024-03-17T06:50:18;99086.31;;;7.24;100.00
69848;BME280;57143;55.940;37.496;2024-03-17T06:52:46;99090.50;;;7.00;100.00
69848;BME280;57143;55.940;37.496;2024-03-17T06:55:15;99081.00;;;6.78;100.00
69848;BME280;57143;55.940;37.496;2024-03-17T06:57:43;99083.25;;;6.68;100.00
69848;BME280;57143;55.940;37.496;2024-03-17T07:00:12;99090.94;;;6.38;100.00
69848;BME280;57143;55.940;37.496;2024-03-17T07:02:42;99088.03;;;6.40;100.00
69848;BME280;57143;55.940;37.496;2024-03-17T07:05:13;99104.19;;;6.33;100.00
69848;BME280;57143;55.940;37.496;2024-03-17T07:07:41;99106.25;;;6.51;100.00
69848;BME280;57143;55.940;37.496;2024-03-17T07:10:09;99102.75;;;6.50;100.00
69848;BME280;57143;55.940;37.496;2024-03-17T07:12:39;99104.41;;;6.45;100.00
69848;BME280;57143;55.940;37.496;2024-03-17T07:15:07;99109.56;;;6.40;100.00
69848;BME280;57143;55.940;37.496;2024-03-17T07:17:34;99112.25;;;6.53;100.00
69848;BME280;57143;55.940;37.496;2024-03-17T07:20:02;99116.00;;;6.65;100.00
69848;BME280;57143;55.940;37.496;2024-03-17T07:22:34;99094.88;;;6.88;100.00
69848;BME280;57143;55.940;37.496;2024-03-17T07:25:01;99093.22;;;6.74;100.00
69848;BME280;57143;55.940;37.496;2024-03-17T07:27:31;99082.66;;;6.79;100.00
69848;BME280;57143;55.940;37.496;2024-03-17T07:30:06;99056.34;;;6.68;100.00
69848;BME280;57143;55.940;37.496;2024-03-17T07:32:35;99076.44;;;6.65;100.00
69848;BME280;57143;55.940;37.496;2024-03-17T07:35:03;99093.84;;;6.76;100.00
69848;BME280;57143;55.940;37.496;2024-03-17T07:37:32;99083.47;;;6.79;100.00
69848;BME280;57143;55.940;37.496;2024-03-17T07:40:00;99078.72;;;6.88;100.00
69848;BME280;57143;55.940;37.496;2024-03-17T07:42:28;99056.97;;;6.76;100.00
69848;BME280;57143;55.940;37.496;2024-03-17T07:44:55;99057.16;;;6.75;100.00
69848;BME280;57143;55.940;37.496;2024-03-17T07:47:24;99068.94;;;6.87;100.00
69848;BME280;57143;55.940;37.496;2024-03-17T07:49:51;99076.84;;;6.95;100.00
69848;BME280;57143;55.940;37.496;2024-03-17T07:52:19;99056.09;;;6.89;100.00
69848;BME280;57143;55.940;37.496;2024-03-17T07:54:46;99071.66;;;6.93;100.00
69848;BME280;57143;55.940;37.496;2024-03-17T07:57:14;99042.69;;;6.76;100.00
69848;BME280;57143;55.940;37.496;2024-03-17T07:59:41;99067.88;;;7.07;100.00
69848;BME280;57143;55.940;37.496;2024-03-17T08:02:09;99064.59;;;7.06;100.00
69848;BME280;57143;55.940;37.496;2024-03-17T08:04:37;99066.66;;;7.10;100.00
69848;BME280;57143;55.940;37.496;2024-03-17T08:07:05;99059.78;;;7.21;100.00
69848;BME280;57143;55.940;37.496;2024-03-17T08:09:32;99048.84;;;6.96;100.00
69848;BME280;57143;55.940;37.496;2024-03-17T08:12:00;99010.28;;;6.95;100.00
69848;BME280;57143;55.940;37.496;2024-03-17T08:14:30;99055.41;;;7.26;100.00
69848;BME280;57143;55.940;37.496;2024-03-17T08:16:57;99059.00;;;7.07;100.00
69848;BME280;57143;55.940;37.496;2024-03-17T08:19:25;99046.19;;;6.83;100.00
69848;BME280;57143;55.940;37.496;2024-03-17T08:21:53;99046.53;;;7.06;100.00
69848;BME280;57143;55.940;37.496;2024-03-17T08:24:21;99062.94;;;6.98;100.00
69848;BME280;57143;55.940;37.496;2024-03-17T08:26:48;99067.69;;;6.96;100.00
69848;BME280;57143;55.940;37.496;2024-03-17T08:29:16;99063.94;;;7.10;100.00
69848;BME280;57143;55.940;37.496;2024-03-17T08:31:43;99048.41;;;6.99;100.00
69848;BME280;57143;55.940;37.496;2024-03-17T08:34:11;99051.31;;;6.97;100.00
69848;BME280;57143;55.940;37.496;2024-03-17T08:36:38;99044.47;;;7.08;100.00
69848;BME280;57143;55.940;37.496;2024-03-17T08:39:07;99059.59;;;7.16;100.00
69848;BME280;57143;55.940;37.496;2024-03-17T08:41:36;99051.88;;;7.26;100.00
69848;BME280;57143;55.940;37.496;2024-03-17T08:44:04;99050.25;;;7.12;100.00
69848;BME280;57143;55.940;37.496;2024-03-17T08:46:32;99049.66;;;7.16;100.00
69848;BME280;57143;55.940;37.496;2024-03-17T08:48:59;99044.44;;;7.21;100.00
69848;BME280;57143;55.940;37.496;2024-03-17T08:51:26;99050.91;;;7.07;100.00
69848;BME280;57143;55.940;37.496;2024-03-17T08:53:54;99049.44;;;7.11;100.00
69848;BME280;57143;55.940;37.496;2024-03-17T08:56:24;99050.47;;;7.17;100.00
69848;BME280;57143;55.940;37.496;2024-03-17T08:58:51;99050.66;;;7.22;100.00
69848;BME280;57143;55.940;37.496;2024-03-17T09:01:19;99040.91;;;7.21;100.00
69848;BME280;57143;55.940;37.496;2024-03-17T09:04:04;99053.59;;;7.14;100.00
69848;BME280;57143;55.940;37.496;2024-03-17T09:06:32;99044.44;;;7.15;100.00
69848;BME280;57143;55.940;37.496;2024-03-17T09:09:00;99054.41;;;7.07;100.00
69848;BME280;57143;55.940;37.496;2024-03-17T09:11:30;99045.91;;;7.04;100.00
69848;BME280;57143;55.940;37.496;2024-03-17T09:13:57;99061.72;;;7.00;100.00
69848;BME280;57143;55.940;37.496;2024-03-17T09:16:26;99060.63;;;7.15;100.00
69848;BME280;57143;55.940;37.496;2024-03-17T09:18:56;99035.13;;;7.04;100.00
69848;BME280;57143;55.940;37.496;2024-03-17T09:21:23;99055.41;;;7.26;100.00
69848;BME280;57143;55.940;37.496;2024-03-17T09:23:51;99053.75;;;7.25;100.00
69848;BME280;57143;55.940;37.496;2024-03-17T09:26:18;99045.84;;;7.30;100.00
69848;BME280;57143;55.940;37.496;2024-03-17T09:28:47;99042.59;;;7.15;100.00
69848;BME280;57143;55.940;37.496;2024-03-17T09:31:14;99031.16;;;7.20;100.00
69848;BME280;57143;55.940;37.496;2024-03-17T09:33:42;99038.84;;;7.23;100.00
69848;BME280;57143;55.940;37.496;2024-03-17T09:36:09;99020.47;;;7.00;100.00
69848;BME280;57143;55.940;37.496;2024-03-17T09:38:38;99049.69;;;6.96;100.00
69848;BME280;57143;55.940;37.496;2024-03-17T09:41:06;99045.13;;;7.03;100.00
69848;BME280;57143;55.940;37.496;2024-03-17T09:43:35;99045.47;;;7.20;100.00
69848;BME280;57143;55.940;37.496;2024-03-17T09:46:04;99045.53;;;6.94;100.00
69848;BME280;57143;55.940;37.496;2024-03-17T09:48:33;99054.19;;;7.16;100.00
69848;BME280;57143;55.940;37.496;2024-03-17T09:51:03;99038.47;;;7.13;100.00
69848;BME280;57143;55.940;37.496;2024-03-17T09:53:32;99045.47;;;7.20;100.00
69848;BME280;57143;55.940;37.496;2024-03-17T09:56:03;99045.44;;;7.33;100.00
69848;BME280;57143;55.940;37.496;2024-03-17T09:58:31;99043.59;;;7.27;100.00
69848;BME280;57143;55.940;37.496;2024-03-17T10:00:59;99042.13;;;7.31;100.00
69848;BME280;57143;55.940;37.496;2024-03-17T10:03:44;99033.66;;;7.15;100.00
69848;BME280;57143;55.940;37.496;2024-03-17T10:06:13;99040.72;;;7.16;100.00
69848;BME280;57143;55.940;37.496;2024-03-17T10:08:42;99039.69;;;7.10;100.00
69848;BME280;57143;55.940;37.496;2024-03-17T10:11:09;99024.16;;;7.12;100.00
69848;BME280;57143;55.940;37.496;2024-03-17T10:13:37;99012.91;;;7.22;100.00
69848;BME280;57143;55.940;37.496;2024-03-17T10:16:05;99031.38;;;7.18;100.00
69848;BME280;57143;55.940;37.496;2024-03-17T10:18:32;99028.09;;;7.10;100.00
69848;BME280;57143;55.940;37.496;2024-03-17T10:21:01;99026.47;;;7.02;100.00
69848;BME280;57143;55.940;37.496;2024-03-17T10:23:28;99030.81;;;7.03;100.00
69848;BME280;57143;55.940;37.496;2024-03-17T10:25:56;99034.94;;;6.99;100.00
69848;BME280;57143;55.940;37.496;2024-03-17T10:28:23;99019.00;;;6.97;100.00
69848;BME280;57143;55.940;37.496;2024-03-17T10:30:57;99026.88;;;6.99;100.00
69848;BME280;57143;55.940;37.496;2024-03-17T10:33:26;99028.53;;;7.00;100.00
69848;BME280;57143;55.940;37.496;2024-03-17T10:36:05;99019.66;;;6.93;100.00
69848;BME280;57143;55.940;37.496;2024-03-17T10:38:32;99035.53;;;7.07;100.00
69848;BME280;57143;55.940;37.496;2024-03-17T10:41:00;99007.66;;;6.82;100.00
69848;BME280;57143;55.940;37.496;2024-03-17T10:43:28;99028.97;;;6.90;100.00
69848;BME280;57143;55.940;37.496;2024-03-17T10:45:58;99032.72;;;6.89;100.00
69848;BME280;57143;55.940;37.496;2024-03-17T10:48:30;99024.00;;;6.87;100.00
69848;BME280;57143;55.940;37.496;2024-03-17T10:50:59;99034.41;;;6.71;100.00
69848;BME280;57143;55.940;37.496;2024-03-17T10:53:30;99047.41;;;6.80;100.00
69848;BME280;57143;55.940;37.496;2024-03-17T10:56:04;99025.91;;;6.74;100.00
69848;BME280;57143;55.940;37.496;2024-03-17T10:58:35;99046.19;;;6.89;100.00
69848;BME280;57143;55.940;37.496;2024-03-17T11:01:04;99041.59;;;7.03;100.00
69848;BME280;57143;55.940;37.496;2024-03-17T11:03:34;99039.94;;;7.02;100.00
69848;BME280;57143;55.940;37.496;2024-03-17T11:06:03;99040.34;;;6.99;100.00
69848;BME280;57143;55.940;37.496;2024-03-17T11:08:33;99015.13;;;6.74;100.00
69848;BME280;57143;55.940;37.496;2024-03-17T11:11:01;99044.09;;;6.98;100.00
69848;BME280;57143;55.940;37.496;2024-03-17T11:13:30;99025.69;;;6.88;100.00
69848;BME280;57143;55.940;37.496;2024-03-17T11:15:58;99040.59;;;6.78;100.00
69848;BME280;57143;55.940;37.496;2024-03-17T11:18:35;99048.66;;;6.84;100.00
69848;BME280;57143;55.940;37.496;2024-03-17T11:21:03;99015.13;;;6.54;100.00
69848;BME280;57143;55.940;37.496;2024-03-17T11:23:38;99060.06;;;6.80;100.00
69848;BME280;57143;55.940;37.496;2024-03-17T11:26:06;99049.09;;;6.68;100.00
69848;BME280;57143;55.940;37.496;2024-03-17T11:28:47;99062.78;;;6.60;100.00
69848;BME280;57143;55.940;37.496;2024-03-17T11:31:34;99065.88;;;6.64;100.00
69848;BME280;57143;55.940;37.496;2024-03-17T11:34:04;99081.84;;;6.59;100.00
69848;BME280;57143;55.940;37.496;2024-03-17T11:36:37;99062.38;;;6.57;100.00
69848;BME280;57143;55.940;37.496;2024-03-17T11:39:06;99061.75;;;6.48;100.00
69848;BME280;57143;55.940;37.496;2024-03-17T11:41:43;99073.53;;;6.41;100.00
69848;BME280;57143;55.940;37.496;2024-03-17T11:44:25;99020.31;;;6.17;100.00
69848;BME280;57143;55.940;37.496;2024-03-17T11:46:56;99058.22;;;6.35;100.00
69848;BME280;57143;55.940;37.496;2024-03-17T11:49:25;99060.09;;;6.54;100.00
69848;BME280;57143;55.940;37.496;2024-03-17T11:51:54;99061.31;;;6.64;100.00
69848;BME280;57143;55.940;37.496;2024-03-17T11:54:24;99056.13;;;6.63;100.00
69848;BME280;57143;55.940;37.496;2024-03-17T11:56:54;99059.06;;;6.48;100.00
69848;BME280;57143;55.940;37.496;2024-03-17T11:59:21;99052.19;;;6.52;100.00
69848;BME280;57143;55.940;37.496;2024-03-17T12:01:49;99055.72;;;6.53;100.00
69848;BME280;57143;55.940;37.496;2024-03-17T12:04:18;99054.91;;;6.46;100.00
69848;BME280;57143;55.940;37.496;2024-03-17T12:06:47;99068.34;;;6.39;100.00
69848;BME280;57143;55.940;37.496;2024-03-17T12:12:09;99066.28;;;6.28;100.00
69848;BME280;57143;55.940;37.496;2024-03-17T12:14:36;99067.53;;;6.19;100.00
69848;BME280;57143;55.940;37.496;2024-03-17T12:17:05;99063.16;;;6.18;100.00
69848;BME280;57143;55.940;37.496;2024-03-17T12:19:33;99087.00;;;6.28;100.00
69848;BME280;57143;55.940;37.496;2024-03-17T12:22:02;99049.69;;;6.05;100.00
69848;BME280;57143;55.940;37.496;2024-03-17T12:24:29;99075.19;;;6.16;100.00
69848;BME280;57143;55.940;37.496;2024-03-17T12:26:58;99089.84;;;6.20;100.00
69848;BME280;57143;55.940;37.496;2024-03-17T12:29:28;99092.53;;;6.13;100.00
69848;BME280;57143;55.940;37.496;2024-03-17T12:31:59;99095.44;;;6.05;100.00
69848;BME280;57143;55.940;37.496;2024-03-17T12:34:29;99093.16;;;6.15;100.00
69848;BME280;57143;55.940;37.496;2024-03-17T12:36:58;99088.84;;;6.27;100.00
69848;BME280;57143;55.940;37.496;2024-03-17T12:39:26;99094.84;;;6.23;100.00
69848;BME280;57143;55.940;37.496;2024-03-17T12:42:04;99090.91;;;6.19;100.00
69848;BME280;57143;55.940;37.496;2024-03-17T12:44:33;99085.69;;;5.98;100.00
69848;BME280;57143;55.940;37.496;2024-03-17T12:47:02;99118.16;;;6.03;100.00
69848;BME280;57143;55.940;37.496;2024-03-17T12:49:30;99127.09;;;6.10;100.00
69848;BME280;57143;55.940;37.496;2024-03-17T12:51:58;99099.56;;;6.01;100.00
69848;BME280;57143;55.940;37.496;2024-03-17T12:54:27;99100.38;;;6.02;100.00
69848;BME280;57143;55.940;37.496;2024-03-17T12:57:04;99123.13;;;5.99;100.00
69848;BME280;57143;55.940;37.496;2024-03-17T12:59:50;99133.06;;;5.99;100.00
69848;BME280;57143;55.940;37.496;2024-03-17T13:02:34;99129.34;;;6.00;100.00